Kamloops Airport
CYKA : now visible

Airfield :











YOU CAN JOIN US ON...

 
LOGIN :

Register | Disclaimer

   EN    FR    IT 

 









Legend :    VFR   Marginal VFR   IFR   Intensive IFR   Very Intensive IFR
Visi :
Ceiling :
>= 8 km
>= 3000ft
5 to 8 km
1000 to 3000 ft
1500m to 5 km
500 to 1000 ft
800 to 1500m
200 to 500 ft
< 800m
< 200 ft
Symbols :   Thunderstorms  Fog  Heavy snow  Heavy precipitations  Wind > 20 kt






- Airport Elevation : 1133 ft
- IATA code : YKA


CYKA - Kamloops

CURRENT METAR :
  • 151500Z 25004KT 15SM BKN018 BKN070 M01/M02 A3004 RMK SC5AC2 SLP193

EXPIRED METARs :
  • 151400Z 00000KT 20SM FEW012 SCT018 BKN073 M01/M02 A3003 RMK SF1SC2AC4 SLP190
  • 151300Z 29006KT 20SM FEW012 SCT022 OVC080 M01/M03 A3003 RMK SF2SC1AC5 SLP186
  • 151236Z 25006KT 10SM FEW012 SCT020 OVC080 01/M02 A3002 RMK SF2SC2AC4 SLP183

TAF TAF CYKA
Valid from the 15 at 13:00 until the 16 at 01:00 UTC


151238Z 1513/1601 VRB03KT P6SM SCT010 BKN025 OVC080
TEMPO 1513/1522 4SM -SN BKN010 OVC025
BECMG 1517/1519 10008KT
FM152200 10008KT P6SM SCT020
TEMPO 1522/1601 BKN020 RMK NXT FCST BY 151900Z



MET'MAP, your aeronautical weather chart ! - Copyright ORBIFLY December 2007 - Disclaimer

ORBIFLY MET'MAP TEAM :

Programming & Development : Alexandra Zaïnal
Concept & original design : Baudouin d'Aumeries
Assistance for programming : Marc-Olivier Méhu
Technical & hardware support : Manuel Goepfert

Contact : metmap@orbifly.com




SOURCES & CREDITS :

   NOAA       Earth
Advisory